PWSweather.com
Personal Weather Stations
Station Observations
PICKERING
North Yorkshire, PickeringGB

North YorkshirePickeringGB

Lat: 54.2494, Lon: -0.7725

Elevation: 192

Station Type: Oregon Scientific WMR100

http://www.yorkshirewalker.co.uk/weather/

High Low Average
Temperature 52.9°F11.6°C 36.9°F2.7°C 45.2°F7.3°C
Dew Point 48.2°F9.0°C 32.0°F0.0°C 39.3°F4.1°C
Winds 15.3 mph 24.6 kmh 0.8 mph 1.3 kmh 8.0 mph S12.9 kmh S
Wind Gusts 25.7 mph41.4 kmh 2.9 mph4.7 kmh 13.0 mph20.9 kmh
Humidity 87% 66% 79%
Pressure 29.03 in983.1 mb 28.26 in957.0 mb -
Precipitation 0.00 in0.0 mm - -
Hour Temp Dew Point Humidity Winds Wind Gusts Pressure Precip Precip Rate Daily Precip Total
12:00 AM 36.9°F2.7°C 32.0°F0.0°C 83% 4.9 mph SW7.9 kmh SW 7.6 mph12.2 kmh 29.03 in983.1 mb 0.00 in0.0 mm 0.00 in0.0 mm 0.00 in0.0 mm
12:05 AM 37.0°F2.8°C 33.8°F1.0°C 83% 4.4 mph SW7.1 kmh SW 7.6 mph12.2 kmh 29.03 in983.1 mb 0.00 in0.0 mm 0.00 in0.0 mm 0.00 in0.0 mm
12:10 AM 37.0°F2.8°C 33.8°F1.0°C 83% 4.0 mph SSW6.4 kmh SSW 7.6 mph12.2 kmh 29.03 in983.1 mb 0.00 in0.0 mm 0.00 in0.0 mm 0.00 in0.0 mm
12:15 AM 36.9°F2.7°C 32.0°F0.0°C 83% 3.5 mph SSW5.6 kmh SSW 7.6 mph12.2 kmh 29.03 in983.1 mb 0.00 in0.0 mm 0.00 in0.0 mm 0.00 in0.0 mm
12:20 AM 37.0°F2.8°C 33.8°F1.0°C 83% 3.5 mph SSW5.6 kmh SSW 6.0 mph9.7 kmh 29.03 in983.1 mb 0.00 in0.0 mm 0.00 in0.0 mm 0.00 in0.0 mm
12:25 AM 37.0°F2.8°C 33.8°F1.0°C 82% 3.8 mph S6.1 kmh S 6.0 mph9.7 kmh 29.03 in983.1 mb 0.00 in0.0 mm 0.00 in0.0 mm 0.00 in0.0 mm
12:30 AM 37.0°F2.8°C 33.8°F1.0°C 82% 3.5 mph S5.6 kmh S 6.0 mph9.7 kmh 29.03 in983.1 mb 0.00 in0.0 mm 0.00 in0.0 mm 0.00 in0.0 mm
12:35 AM 37.0°F2.8°C 33.8°F1.0°C 82% 4.0 mph S6.4 kmh S 6.5 mph10.5 kmh 29.03 in983.1 mb 0.00 in0.0 mm 0.00 in0.0 mm 0.00 in0.0 mm
12:40 AM 36.9°F2.7°C 32.0°F0.0°C 82% 3.8 mph S6.1 kmh S 6.5 mph10.5 kmh 29.00 in982.1 mb 0.00 in0.0 mm 0.00 in0.0 mm 0.00 in0.0 mm
12:45 AM 37.0°F2.8°C 33.8°F1.0°C 82% 2.9 mph S4.7 kmh S 5.6 mph9.0 kmh 29.00 in982.1 mb 0.00 in0.0 mm 0.00 in0.0 mm 0.00 in0.0 mm
12:50 AM 37.0°F2.8°C 33.8°F1.0°C 82% 2.6 mph S4.2 kmh S 5.6 mph9.0 kmh 29.00 in982.1 mb 0.00 in0.0 mm 0.00 in0.0 mm 0.00 in0.0 mm
12:55 AM 37.2°F2.9°C 33.8°F1.0°C 82% 2.3 mph S3.7 kmh S 3.8 mph6.1 kmh 29.00 in982.1 mb 0.00 in0.0 mm 0.00 in0.0 mm 0.00 in0.0 mm
01:00 AM 37.4°F3.0°C 33.8°F1.0°C 83% 1.7 mph S2.7 kmh S 3.6 mph5.8 kmh 29.00 in982.1 mb 0.00 in0.0 mm 0.00 in0.0 mm 0.00 in0.0 mm
01:05 AM 37.4°F3.0°C 33.8°F1.0°C 83% 0.8 mph S1.3 kmh S 3.6 mph5.8 kmh 29.00 in982.1 mb 0.00 in0.0 mm 0.00 in0.0 mm 0.00 in0.0 mm
01:10 AM 37.6°F3.1°C 33.8°F1.0°C 83% 1.0 mph SSE1.6 kmh SSE 2.9 mph4.7 kmh 29.00 in982.1 mb 0.00 in0.0 mm 0.00 in0.0 mm 0.00 in0.0 mm
01:15 AM 37.9°F3.3°C 33.8°F1.0°C 83% 2.5 mph S4.0 kmh S 7.4 mph11.9 kmh 29.00 in982.1 mb 0.00 in0.0 mm 0.00 in0.0 mm 0.00 in0.0 mm
01:20 AM 38.1°F3.4°C 33.8°F1.0°C 83% 3.1 mph S5.0 kmh S 7.4 mph11.9 kmh 29.00 in982.1 mb 0.00 in0.0 mm 0.00 in0.0 mm 0.00 in0.0 mm
01:25 AM 38.1°F3.4°C 33.8°F1.0°C 83% 2.7 mph S4.3 kmh S 3.6 mph5.8 kmh 28.97 in981.0 mb 0.00 in0.0 mm 0.00 in0.0 mm 0.00 in0.0 mm
01:30 AM 38.3°F3.5°C 33.8°F1.0°C 83% 2.7 mph S4.3 kmh S 3.6 mph5.8 kmh 28.97 in981.0 mb 0.00 in0.0 mm 0.00 in0.0 mm 0.00 in0.0 mm
01:35 AM 38.3°F3.5°C 33.8°F1.0°C 83% 3.4 mph S5.5 kmh S 5.8 mph9.3 kmh 28.97 in981.0 mb 0.00 in0.0 mm 0.00 in0.0 mm 0.00 in0.0 mm
01:40 AM 38.5°F3.6°C 33.8°F1.0°C 83% 3.8 mph S6.1 kmh S 5.8 mph9.3 kmh 29.00 in982.1 mb 0.00 in0.0 mm 0.00 in0.0 mm 0.00 in0.0 mm
01:45 AM 38.7°F3.7°C 33.8°F1.0°C 83% 3.4 mph S5.5 kmh S 5.8 mph9.3 kmh 29.00 in982.1 mb 0.00 in0.0 mm 0.00 in0.0 mm 0.00 in0.0 mm
01:50 AM 38.7°F3.7°C 33.8°F1.0°C 83% 4.0 mph S6.4 kmh S 8.7 mph14.0 kmh 29.00 in982.1 mb 0.00 in0.0 mm 0.00 in0.0 mm 0.00 in0.0 mm
01:55 AM 38.8°F3.8°C 33.8°F1.0°C 83% 5.2 mph SSW8.4 kmh SSW 8.7 mph14.0 kmh 28.97 in981.0 mb 0.00 in0.0 mm 0.00 in0.0 mm 0.00 in0.0 mm
02:00 AM 39.0°F3.9°C 33.8°F1.0°C 83% 6.4 mph S10.3 kmh S 8.7 mph14.0 kmh 28.97 in981.0 mb 0.00 in0.0 mm 0.00 in0.0 mm 0.00 in0.0 mm
02:05 AM 39.2°F4.0°C 33.8°F1.0°C 83% 6.3 mph S10.1 kmh S 12.5 mph20.1 kmh 28.97 in981.0 mb 0.00 in0.0 mm 0.00 in0.0 mm 0.00 in0.0 mm
02:10 AM 39.2°F4.0°C 33.8°F1.0°C 83% 5.5 mph S8.9 kmh S 12.5 mph20.1 kmh 28.97 in981.0 mb 0.00 in0.0 mm 0.00 in0.0 mm 0.00 in0.0 mm
02:15 AM 39.4°F4.1°C 33.8°F1.0°C 83% 5.6 mph S9.0 kmh S 12.5 mph20.1 kmh 28.97 in981.0 mb 0.00 in0.0 mm 0.00 in0.0 mm 0.00 in0.0 mm
02:20 AM 39.4°F4.1°C 33.8°F1.0°C 83% 4.9 mph S7.9 kmh S 8.5 mph13.7 kmh 28.97 in981.0 mb 0.00 in0.0 mm 0.00 in0.0 mm 0.00 in0.0 mm
02:25 AM 39.6°F4.2°C 35.6°F2.0°C 83% 6.1 mph SSE9.8 kmh SSE 10.3 mph16.6 kmh 28.97 in981.0 mb 0.00 in0.0 mm 0.00 in0.0 mm 0.00 in0.0 mm
02:30 AM 39.6°F4.2°C 35.6°F2.0°C 83% 6.3 mph S10.1 kmh S 10.3 mph16.6 kmh 28.97 in981.0 mb 0.00 in0.0 mm 0.00 in0.0 mm 0.00 in0.0 mm
02:35 AM 39.6°F4.2°C 35.6°F2.0°C 83% 4.7 mph S7.6 kmh S 8.1 mph13.0 kmh 28.97 in981.0 mb 0.00 in0.0 mm 0.00 in0.0 mm 0.00 in0.0 mm
02:40 AM 39.7°F4.3°C 35.6°F2.0°C 83% 4.1 mph S6.6 kmh S 8.1 mph13.0 kmh 28.94 in980.0 mb 0.00 in0.0 mm 0.00 in0.0 mm 0.00 in0.0 mm
02:45 AM 39.7°F4.3°C 35.6°F2.0°C 83% 4.3 mph S6.9 kmh S 7.4 mph11.9 kmh 28.94 in980.0 mb 0.00 in0.0 mm 0.00 in0.0 mm 0.00 in0.0 mm
02:50 AM 39.9°F4.4°C 35.6°F2.0°C 83% 4.9 mph S7.9 kmh S 8.1 mph13.0 kmh 28.94 in980.0 mb 0.00 in0.0 mm 0.00 in0.0 mm 0.00 in0.0 mm
02:55 AM 39.9°F4.4°C 35.6°F2.0°C 83% 4.7 mph S7.6 kmh S 8.1 mph13.0 kmh 28.94 in980.0 mb 0.00 in0.0 mm 0.00 in0.0 mm 0.00 in0.0 mm
03:00 AM 39.9°F4.4°C 35.6°F2.0°C 83% 5.1 mph SSE8.2 kmh SSE 10.5 mph16.9 kmh 28.94 in980.0 mb 0.00 in0.0 mm 0.00 in0.0 mm 0.00 in0.0 mm
03:05 AM 40.1°F4.5°C 35.6°F2.0°C 84% 5.1 mph S8.2 kmh S 10.5 mph16.9 kmh 28.94 in980.0 mb 0.00 in0.0 mm 0.00 in0.0 mm 0.00 in0.0 mm
03:10 AM 40.1°F4.5°C 35.6°F2.0°C 84% 4.6 mph S7.4 kmh S 8.5 mph13.7 kmh 28.91 in979.0 mb 0.00 in0.0 mm 0.00 in0.0 mm 0.00 in0.0 mm
03:15 AM 40.3°F4.6°C 35.6°F2.0°C 84% 4.6 mph S7.4 kmh S 8.5 mph13.7 kmh 28.91 in979.0 mb 0.00 in0.0 mm 0.00 in0.0 mm 0.00 in0.0 mm
03:20 AM 40.3°F4.6°C 35.6°F2.0°C 84% 4.0 mph S6.4 kmh S 8.1 mph13.0 kmh 28.91 in979.0 mb 0.00 in0.0 mm 0.00 in0.0 mm 0.00 in0.0 mm
03:25 AM 40.5°F4.7°C 35.6°F2.0°C 84% 4.1 mph S6.6 kmh S 9.6 mph15.4 kmh 28.91 in979.0 mb 0.00 in0.0 mm 0.00 in0.0 mm 0.00 in0.0 mm
03:30 AM 40.6°F4.8°C 35.6°F2.0°C 84% 5.3 mph S8.5 kmh S 9.6 mph15.4 kmh 28.91 in979.0 mb 0.00 in0.0 mm 0.00 in0.0 mm 0.00 in0.0 mm
03:35 AM 40.6°F4.8°C 35.6°F2.0°C 84% 5.0 mph S8.0 kmh S 9.8 mph15.8 kmh 28.91 in979.0 mb 0.00 in0.0 mm 0.00 in0.0 mm 0.00 in0.0 mm
03:40 AM 41.0°F5.0°C 37.4°F3.0°C 84% 5.2 mph S8.4 kmh S 10.7 mph17.2 kmh 28.88 in978.0 mb 0.00 in0.0 mm 0.00 in0.0 mm 0.00 in0.0 mm
03:45 AM 41.0°F5.0°C 37.4°F3.0°C 85% 6.0 mph S9.7 kmh S 10.7 mph17.2 kmh 28.88 in978.0 mb 0.00 in0.0 mm 0.00 in0.0 mm 0.00 in0.0 mm
03:50 AM 41.2°F5.1°C 37.4°F3.0°C 85% 5.8 mph S9.3 kmh S 8.7 mph14.0 kmh 28.88 in978.0 mb 0.00 in0.0 mm 0.00 in0.0 mm 0.00 in0.0 mm
03:55 AM 41.4°F5.2°C 37.4°F3.0°C 85% 6.9 mph S11.1 kmh S 10.1 mph16.3 kmh 28.85 in977.0 mb 0.00 in0.0 mm 0.00 in0.0 mm 0.00 in0.0 mm
04:00 AM 41.4°F5.2°C 37.4°F3.0°C 85% 7.7 mph S12.4 kmh S 10.5 mph16.9 kmh 28.85 in977.0 mb 0.00 in0.0 mm 0.00 in0.0 mm 0.00 in0.0 mm
04:05 AM 41.5°F5.3°C 37.4°F3.0°C 85% 8.4 mph S13.5 kmh S 10.5 mph16.9 kmh 28.85 in977.0 mb 0.00 in0.0 mm 0.00 in0.0 mm 0.00 in0.0 mm
04:10 AM 41.7°F5.4°C 37.4°F3.0°C 85% 9.1 mph S14.6 kmh S 12.8 mph20.6 kmh 28.88 in978.0 mb 0.00 in0.0 mm 0.00 in0.0 mm 0.00 in0.0 mm
04:15 AM 41.9°F5.5°C 39.2°F4.0°C 85% 9.7 mph SSW15.6 kmh SSW 12.8 mph20.6 kmh 28.88 in978.0 mb 0.00 in0.0 mm 0.00 in0.0 mm 0.00 in0.0 mm
04:20 AM 41.9°F5.5°C 39.2°F4.0°C 85% 10.3 mph S16.6 kmh S 16.8 mph27.0 kmh 28.88 in978.0 mb 0.00 in0.0 mm 0.00 in0.0 mm 0.00 in0.0 mm
04:25 AM 42.1°F5.6°C 39.2°F4.0°C 85% 10.2 mph S16.4 kmh S 18.8 mph30.3 kmh 28.85 in977.0 mb 0.00 in0.0 mm 0.00 in0.0 mm 0.00 in0.0 mm
04:30 AM 42.1°F5.6°C 39.2°F4.0°C 85% 9.3 mph S15.0 kmh S 18.8 mph30.3 kmh 28.85 in977.0 mb 0.00 in0.0 mm 0.00 in0.0 mm 0.00 in0.0 mm
04:35 AM 42.1°F5.6°C 39.2°F4.0°C 85% 7.8 mph S12.6 kmh S 11.0 mph17.7 kmh 28.85 in977.0 mb 0.00 in0.0 mm 0.00 in0.0 mm 0.00 in0.0 mm
04:40 AM 42.3°F5.7°C 39.2°F4.0°C 86% 7.6 mph S12.2 kmh S 11.0 mph17.7 kmh 28.85 in977.0 mb 0.00 in0.0 mm 0.00 in0.0 mm 0.00 in0.0 mm
04:45 AM 42.3°F5.7°C 39.2°F4.0°C 86% 7.3 mph S11.7 kmh S 12.1 mph19.5 kmh 28.85 in977.0 mb 0.00 in0.0 mm 0.00 in0.0 mm 0.00 in0.0 mm
04:50 AM 42.3°F5.7°C 39.2°F4.0°C 86% 7.3 mph SSW11.7 kmh SSW 13.0 mph20.9 kmh 28.85 in977.0 mb 0.00 in0.0 mm 0.00 in0.0 mm 0.00 in0.0 mm
04:55 AM 42.4°F5.8°C 39.2°F4.0°C 86% 8.6 mph S13.8 kmh S 13.4 mph21.6 kmh 28.82 in976.0 mb 0.00 in0.0 mm 0.00 in0.0 mm 0.00 in0.0 mm
05:00 AM 42.4°F5.8°C 39.2°F4.0°C 86% 8.0 mph S12.9 kmh S 13.4 mph21.6 kmh 28.82 in976.0 mb 0.00 in0.0 mm 0.00 in0.0 mm 0.00 in0.0 mm
05:05 AM 42.4°F5.8°C 39.2°F4.0°C 86% 5.7 mph S9.2 kmh S 10.1 mph16.3 kmh 28.82 in976.0 mb 0.00 in0.0 mm 0.00 in0.0 mm 0.00 in0.0 mm
05:10 AM 42.4°F5.8°C 39.2°F4.0°C 86% 6.2 mph S10.0 kmh S 10.5 mph16.9 kmh 28.82 in976.0 mb 0.00 in0.0 mm 0.00 in0.0 mm 0.00 in0.0 mm
05:15 AM 42.4°F5.8°C 39.2°F4.0°C 86% 6.4 mph S10.3 kmh S 10.5 mph16.9 kmh 28.82 in976.0 mb 0.00 in0.0 mm 0.00 in0.0 mm 0.00 in0.0 mm
05:20 AM 42.6°F5.9°C 39.2°F4.0°C 86% 6.5 mph S10.5 kmh S 9.8 mph15.8 kmh 28.82 in976.0 mb 0.00 in0.0 mm 0.00 in0.0 mm 0.00 in0.0 mm
05:25 AM 42.6°F5.9°C 39.2°F4.0°C 86% 6.6 mph S10.6 kmh S 9.8 mph15.8 kmh 28.82 in976.0 mb 0.00 in0.0 mm 0.00 in0.0 mm 0.00 in0.0 mm
05:30 AM 42.6°F5.9°C 39.2°F4.0°C 87% 6.3 mph SSW10.1 kmh SSW 9.4 mph15.1 kmh 28.82 in976.0 mb 0.00 in0.0 mm 0.00 in0.0 mm 0.00 in0.0 mm
05:35 AM 42.8°F6.0°C 39.2°F4.0°C 87% 6.5 mph S10.5 kmh S 10.1 mph16.3 kmh 28.82 in976.0 mb 0.00 in0.0 mm 0.00 in0.0 mm 0.00 in0.0 mm
05:40 AM 42.8°F6.0°C 39.2°F4.0°C 87% 5.6 mph S9.0 kmh S 10.1 mph16.3 kmh 28.80 in975.3 mb 0.00 in0.0 mm 0.00 in0.0 mm 0.00 in0.0 mm
05:45 AM 42.8°F6.0°C 39.2°F4.0°C 87% 6.2 mph SSE10.0 kmh SSE 8.7 mph14.0 kmh 28.80 in975.3 mb 0.00 in0.0 mm 0.00 in0.0 mm 0.00 in0.0 mm
05:50 AM 43.0°F6.1°C 39.2°F4.0°C 87% 8.1 mph S13.0 kmh S 13.0 mph20.9 kmh 28.80 in975.3 mb 0.00 in0.0 mm 0.00 in0.0 mm 0.00 in0.0 mm
05:55 AM 43.0°F6.1°C 39.2°F4.0°C 87% 8.3 mph S13.4 kmh S 13.0 mph20.9 kmh 28.80 in975.3 mb 0.00 in0.0 mm 0.00 in0.0 mm 0.00 in0.0 mm
06:00 AM 43.0°F6.1°C 39.2°F4.0°C 87% 7.8 mph S12.6 kmh S 12.5 mph20.1 kmh 28.80 in975.3 mb 0.00 in0.0 mm 0.00 in0.0 mm 0.00 in0.0 mm
06:05 AM 43.2°F6.2°C 41.0°F5.0°C 87% 7.5 mph S12.1 kmh S 12.5 mph20.1 kmh 28.80 in975.3 mb 0.00 in0.0 mm 0.00 in0.0 mm 0.00 in0.0 mm
06:10 AM 43.2°F6.2°C 41.0°F5.0°C 87% 7.3 mph S11.7 kmh S 12.3 mph19.8 kmh 28.80 in975.3 mb 0.00 in0.0 mm 0.00 in0.0 mm 0.00 in0.0 mm
06:15 AM 43.2°F6.2°C 41.0°F5.0°C 87% 7.8 mph S12.6 kmh S 10.1 mph16.3 kmh 28.80 in975.3 mb 0.00 in0.0 mm 0.00 in0.0 mm 0.00 in0.0 mm
06:20 AM 43.2°F6.2°C 41.0°F5.0°C 87% 9.1 mph SSW14.6 kmh SSW 17.2 mph27.7 kmh 28.80 in975.3 mb 0.00 in0.0 mm 0.00 in0.0 mm 0.00 in0.0 mm
06:25 AM 43.3°F6.3°C 41.0°F5.0°C 87% 8.9 mph SSW14.3 kmh SSW 17.2 mph27.7 kmh 28.77 in974.3 mb 0.00 in0.0 mm 0.00 in0.0 mm 0.00 in0.0 mm
06:30 AM 43.3°F6.3°C 41.0°F5.0°C 87% 8.4 mph SSW13.5 kmh SSW 12.3 mph19.8 kmh 28.77 in974.3 mb 0.00 in0.0 mm 0.00 in0.0 mm 0.00 in0.0 mm
06:35 AM 43.3°F6.3°C 41.0°F5.0°C 87% 9.8 mph SSW15.8 kmh SSW 15.4 mph24.8 kmh 28.77 in974.3 mb 0.00 in0.0 mm 0.00 in0.0 mm 0.00 in0.0 mm
06:40 AM 43.5°F6.4°C 41.0°F5.0°C 87% 10.6 mph S17.1 kmh S 15.4 mph24.8 kmh 28.77 in974.3 mb 0.00 in0.0 mm 0.00 in0.0 mm 0.00 in0.0 mm
06:45 AM 43.7°F6.5°C 41.0°F5.0°C 87% 10.3 mph S16.6 kmh S 14.8 mph23.8 kmh 28.77 in974.3 mb 0.00 in0.0 mm 0.00 in0.0 mm 0.00 in0.0 mm
06:50 AM 43.7°F6.5°C 41.0°F5.0°C 87% 9.9 mph S15.9 kmh S 14.8 mph23.8 kmh 28.77 in974.3 mb 0.00 in0.0 mm 0.00 in0.0 mm 0.00 in0.0 mm
06:55 AM 43.9°F6.6°C 41.0°F5.0°C 87% 9.6 mph S15.4 kmh S 13.2 mph21.2 kmh 28.74 in973.2 mb 0.00 in0.0 mm 0.00 in0.0 mm 0.00 in0.0 mm
07:00 AM 44.1°F6.7°C 41.0°F5.0°C 87% 10.3 mph S16.6 kmh S 13.9 mph22.4 kmh 28.74 in973.2 mb 0.00 in0.0 mm 0.00 in0.0 mm 0.00 in0.0 mm
07:05 AM 44.1°F6.7°C 41.0°F5.0°C 87% 10.6 mph S17.1 kmh S 13.9 mph22.4 kmh 28.74 in973.2 mb 0.00 in0.0 mm 0.00 in0.0 mm 0.00 in0.0 mm
07:10 AM 44.2°F6.8°C 41.0°F5.0°C 87% 11.0 mph S17.7 kmh S 14.8 mph23.8 kmh 28.74 in973.2 mb 0.00 in0.0 mm 0.00 in0.0 mm 0.00 in0.0 mm
07:15 AM 44.4°F6.9°C 41.0°F5.0°C 87% 10.0 mph S16.1 kmh S 14.8 mph23.8 kmh 28.74 in973.2 mb 0.00 in0.0 mm 0.00 in0.0 mm 0.00 in0.0 mm
07:20 AM 44.6°F7.0°C 41.0°F5.0°C 87% 8.4 mph S13.5 kmh S 14.8 mph23.8 kmh 28.74 in973.2 mb 0.00 in0.0 mm 0.00 in0.0 mm 0.00 in0.0 mm
07:25 AM 44.6°F7.0°C 41.0°F5.0°C 87% 8.2 mph S13.2 kmh S 11.0 mph17.7 kmh 28.74 in973.2 mb 0.00 in0.0 mm 0.00 in0.0 mm 0.00 in0.0 mm
07:30 AM 44.8°F7.1°C 41.0°F5.0°C 86% 9.8 mph S15.8 kmh S 13.0 mph20.9 kmh 28.74 in973.2 mb 0.00 in0.0 mm 0.00 in0.0 mm 0.00 in0.0 mm
07:35 AM 44.8°F7.1°C 41.0°F5.0°C 86% 9.9 mph S15.9 kmh S 13.0 mph20.9 kmh 28.74 in973.2 mb 0.00 in0.0 mm 0.00 in0.0 mm 0.00 in0.0 mm
07:40 AM 44.8°F7.1°C 41.0°F5.0°C 86% 8.7 mph S14.0 kmh S 12.5 mph20.1 kmh 28.74 in973.2 mb 0.00 in0.0 mm 0.00 in0.0 mm 0.00 in0.0 mm
07:45 AM 45.0°F7.2°C 41.0°F5.0°C 86% 8.7 mph S14.0 kmh S 12.5 mph20.1 kmh 28.74 in973.2 mb 0.00 in0.0 mm 0.00 in0.0 mm 0.00 in0.0 mm
07:50 AM 45.0°F7.2°C 41.0°F5.0°C 86% 8.0 mph S12.9 kmh S 10.7 mph17.2 kmh 28.74 in973.2 mb 0.00 in0.0 mm 0.00 in0.0 mm 0.00 in0.0 mm
07:55 AM 45.1°F7.3°C 41.0°F5.0°C 86% 7.3 mph S11.7 kmh S 10.1 mph16.3 kmh 28.71 in972.2 mb 0.00 in0.0 mm 0.00 in0.0 mm 0.00 in0.0 mm
08:00 AM 45.1°F7.3°C 41.0°F5.0°C 86% 9.3 mph S15.0 kmh S 14.5 mph23.3 kmh 28.71 in972.2 mb 0.00 in0.0 mm 0.00 in0.0 mm 0.00 in0.0 mm
08:05 AM 45.1°F7.3°C 41.0°F5.0°C 86% 10.6 mph S17.1 kmh S 16.6 mph26.7 kmh 28.71 in972.2 mb 0.00 in0.0 mm 0.00 in0.0 mm 0.00 in0.0 mm
08:10 AM 45.1°F7.3°C 41.0°F5.0°C 86% 9.0 mph S14.5 kmh S 16.6 mph26.7 kmh 28.71 in972.2 mb 0.00 in0.0 mm 0.00 in0.0 mm 0.00 in0.0 mm
08:15 AM 45.1°F7.3°C 41.0°F5.0°C 86% 6.0 mph S9.7 kmh S 13.6 mph21.9 kmh 28.71 in972.2 mb 0.00 in0.0 mm 0.00 in0.0 mm 0.00 in0.0 mm
08:20 AM 45.3°F7.4°C 41.0°F5.0°C 86% 5.7 mph S9.2 kmh S 7.8 mph12.6 kmh 28.71 in972.2 mb 0.00 in0.0 mm 0.00 in0.0 mm 0.00 in0.0 mm
08:25 AM 45.3°F7.4°C 41.0°F5.0°C 86% 6.2 mph S10.0 kmh S 10.3 mph16.6 kmh 28.41 in962.1 mb 0.00 in0.0 mm 0.00 in0.0 mm 0.00 in0.0 mm
08:30 AM 45.7°F7.6°C 42.8°F6.0°C 86% 9.0 mph S14.5 kmh S 15.7 mph25.3 kmh 28.41 in962.1 mb 0.00 in0.0 mm 0.00 in0.0 mm 0.00 in0.0 mm
08:35 AM 45.7°F7.6°C 42.8°F6.0°C 86% 9.4 mph S15.1 kmh S 15.7 mph25.3 kmh 28.41 in962.1 mb 0.00 in0.0 mm 0.00 in0.0 mm 0.00 in0.0 mm
08:40 AM 45.9°F7.7°C 42.8°F6.0°C 86% 8.8 mph S14.2 kmh S 12.1 mph19.5 kmh 28.68 in971.2 mb 0.00 in0.0 mm 0.00 in0.0 mm 0.00 in0.0 mm
08:45 AM 45.9°F7.7°C 42.8°F6.0°C 86% 8.7 mph S14.0 kmh S 12.5 mph20.1 kmh 28.68 in971.2 mb 0.00 in0.0 mm 0.00 in0.0 mm 0.00 in0.0 mm
08:50 AM 46.0°F7.8°C 42.8°F6.0°C 85% 9.5 mph S15.3 kmh S 15.4 mph24.8 kmh 28.68 in971.2 mb 0.00 in0.0 mm 0.00 in0.0 mm 0.00 in0.0 mm
08:55 AM 46.2°F7.9°C 42.8°F6.0°C 85% 11.8 mph S19.0 kmh S 16.3 mph26.2 kmh 28.65 in970.2 mb 0.00 in0.0 mm 0.00 in0.0 mm 0.00 in0.0 mm
09:00 AM 46.4°F8.0°C 42.8°F6.0°C 85% 10.5 mph SSE16.9 kmh SSE 16.3 mph26.2 kmh 28.65 in970.2 mb 0.00 in0.0 mm 0.00 in0.0 mm 0.00 in0.0 mm
09:05 AM 46.4°F8.0°C 42.8°F6.0°C 85% 7.7 mph SSE12.4 kmh SSE 11.0 mph17.7 kmh 28.65 in970.2 mb 0.00 in0.0 mm 0.00 in0.0 mm 0.00 in0.0 mm
09:10 AM 46.4°F8.0°C 42.8°F6.0°C 85% 8.6 mph S13.8 kmh S 12.3 mph19.8 kmh 28.65 in970.2 mb 0.00 in0.0 mm 0.00 in0.0 mm 0.00 in0.0 mm
09:15 AM 46.6°F8.1°C 42.8°F6.0°C 85% 10.4 mph S16.7 kmh S 13.0 mph20.9 kmh 28.65 in970.2 mb 0.00 in0.0 mm 0.00 in0.0 mm 0.00 in0.0 mm
09:20 AM 46.8°F8.2°C 42.8°F6.0°C 85% 9.9 mph S15.9 kmh S 13.2 mph21.2 kmh 28.65 in970.2 mb 0.00 in0.0 mm 0.00 in0.0 mm 0.00 in0.0 mm
09:25 AM 46.8°F8.2°C 42.8°F6.0°C 85% 9.5 mph SSE15.3 kmh SSE 13.2 mph21.2 kmh 28.65 in970.2 mb 0.00 in0.0 mm 0.00 in0.0 mm 0.00 in0.0 mm
09:30 AM 46.8°F8.2°C 42.8°F6.0°C 85% 8.8 mph SSE14.2 kmh SSE 13.0 mph20.9 kmh 28.65 in970.2 mb 0.00 in0.0 mm 0.00 in0.0 mm 0.00 in0.0 mm
09:35 AM 46.8°F8.2°C 42.8°F6.0°C 85% 9.5 mph S15.3 kmh S 12.8 mph20.6 kmh 28.65 in970.2 mb 0.00 in0.0 mm 0.00 in0.0 mm 0.00 in0.0 mm
09:40 AM 46.9°F8.3°C 42.8°F6.0°C 85% 10.3 mph SSE16.6 kmh SSE 13.4 mph21.6 kmh 28.62 in969.2 mb 0.00 in0.0 mm 0.00 in0.0 mm 0.00 in0.0 mm
09:45 AM 47.1°F8.4°C 42.8°F6.0°C 85% 10.6 mph SSE17.1 kmh SSE 15.4 mph24.8 kmh 28.62 in969.2 mb 0.00 in0.0 mm 0.00 in0.0 mm 0.00 in0.0 mm
09:50 AM 47.1°F8.4°C 42.8°F6.0°C 85% 9.9 mph S15.9 kmh S 15.4 mph24.8 kmh 28.62 in969.2 mb 0.00 in0.0 mm 0.00 in0.0 mm 0.00 in0.0 mm
09:55 AM 47.3°F8.5°C 44.6°F7.0°C 85% 9.9 mph S15.9 kmh S 14.1 mph22.7 kmh 28.62 in969.2 mb 0.00 in0.0 mm 0.00 in0.0 mm 0.00 in0.0 mm
10:00 AM 47.5°F8.6°C 42.8°F6.0°C 84% 12.6 mph S20.3 kmh S 19.7 mph31.7 kmh 28.62 in969.2 mb 0.00 in0.0 mm 0.00 in0.0 mm 0.00 in0.0 mm
10:05 AM 47.5°F8.6°C 42.8°F6.0°C 84% 11.4 mph S18.3 kmh S 19.7 mph31.7 kmh 28.62 in969.2 mb 0.00 in0.0 mm 0.00 in0.0 mm 0.00 in0.0 mm
10:10 AM 47.5°F8.6°C 42.8°F6.0°C 84% 10.8 mph S17.4 kmh S 19.7 mph31.7 kmh 28.59 in968.2 mb 0.00 in0.0 mm 0.00 in0.0 mm 0.00 in0.0 mm
10:15 AM 47.7°F8.7°C 42.8°F6.0°C 84% 9.8 mph S15.8 kmh S 19.2 mph30.9 kmh 28.59 in968.2 mb 0.00 in0.0 mm 0.00 in0.0 mm 0.00 in0.0 mm
10:20 AM 47.7°F8.7°C 42.8°F6.0°C 84% 10.0 mph S16.1 kmh S 19.0 mph30.6 kmh 28.59 in968.2 mb 0.00 in0.0 mm 0.00 in0.0 mm 0.00 in0.0 mm
10:25 AM 47.7°F8.7°C 42.8°F6.0°C 84% 9.7 mph S15.6 kmh S 19.0 mph30.6 kmh 28.59 in968.2 mb 0.00 in0.0 mm 0.00 in0.0 mm 0.00 in0.0 mm
10:30 AM 47.7°F8.7°C 42.8°F6.0°C 84% 9.9 mph S15.9 kmh S 15.4 mph24.8 kmh 28.59 in968.2 mb 0.00 in0.0 mm 0.00 in0.0 mm 0.00 in0.0 mm
10:35 AM 47.8°F8.8°C 44.6°F7.0°C 85% 10.5 mph S16.9 kmh S 15.4 mph24.8 kmh 28.59 in968.2 mb 0.00 in0.0 mm 0.00 in0.0 mm 0.00 in0.0 mm
10:40 AM 47.8°F8.8°C 44.6°F7.0°C 85% 9.9 mph S15.9 kmh S 15.4 mph24.8 kmh 28.59 in968.2 mb 0.00 in0.0 mm 0.00 in0.0 mm 0.00 in0.0 mm
10:45 AM 47.8°F8.8°C 44.6°F7.0°C 85% 10.1 mph S16.3 kmh S 15.4 mph24.8 kmh 28.59 in968.2 mb 0.00 in0.0 mm 0.00 in0.0 mm 0.00 in0.0 mm
10:50 AM 47.8°F8.8°C 44.6°F7.0°C 85% 11.6 mph S18.7 kmh S 15.7 mph25.3 kmh 28.59 in968.2 mb 0.00 in0.0 mm 0.00 in0.0 mm 0.00 in0.0 mm
10:55 AM 47.8°F8.8°C 44.6°F7.0°C 85% 10.6 mph S17.1 kmh S 15.7 mph25.3 kmh 28.56 in967.2 mb 0.00 in0.0 mm 0.00 in0.0 mm 0.00 in0.0 mm
11:00 AM 48.0°F8.9°C 44.6°F7.0°C 85% 10.0 mph S16.1 kmh S 14.3 mph23.0 kmh 28.56 in967.2 mb 0.00 in0.0 mm 0.00 in0.0 mm 0.00 in0.0 mm
11:05 AM 48.0°F8.9°C 44.6°F7.0°C 85% 9.7 mph S15.6 kmh S 14.3 mph23.0 kmh 28.56 in967.2 mb 0.00 in0.0 mm 0.00 in0.0 mm 0.00 in0.0 mm
11:10 AM 48.0°F8.9°C 44.6°F7.0°C 85% 9.5 mph S15.3 kmh S 19.0 mph30.6 kmh 28.56 in967.2 mb 0.00 in0.0 mm 0.00 in0.0 mm 0.00 in0.0 mm
11:15 AM 48.2°F9.0°C 44.6°F7.0°C 86% 11.1 mph S17.9 kmh S 19.0 mph30.6 kmh 28.56 in967.2 mb 0.00 in0.0 mm 0.00 in0.0 mm 0.00 in0.0 mm
11:20 AM 48.2°F9.0°C 44.6°F7.0°C 86% 11.3 mph SSE18.2 kmh SSE 17.4 mph28.0 kmh 28.56 in967.2 mb 0.00 in0.0 mm 0.00 in0.0 mm 0.00 in0.0 mm
11:25 AM 48.4°F9.1°C 44.6°F7.0°C 86% 10.4 mph S16.7 kmh S 12.8 mph20.6 kmh 28.53 in966.1 mb 0.00 in0.0 mm 0.00 in0.0 mm 0.00 in0.0 mm
11:30 AM 48.6°F9.2°C 44.6°F7.0°C 86% 10.3 mph S16.6 kmh S 12.8 mph20.6 kmh 28.53 in966.1 mb 0.00 in0.0 mm 0.00 in0.0 mm 0.00 in0.0 mm
11:35 AM 48.6°F9.2°C 44.6°F7.0°C 86% 11.3 mph S18.2 kmh S 17.0 mph27.4 kmh 28.53 in966.1 mb 0.00 in0.0 mm 0.00 in0.0 mm 0.00 in0.0 mm
11:40 AM 48.7°F9.3°C 44.6°F7.0°C 85% 13.3 mph S21.4 kmh S 19.2 mph30.9 kmh 28.53 in966.1 mb 0.00 in0.0 mm 0.00 in0.0 mm 0.00 in0.0 mm
11:45 AM 48.9°F9.4°C 44.6°F7.0°C 85% 12.8 mph S20.6 kmh S 19.2 mph30.9 kmh 28.53 in966.1 mb 0.00 in0.0 mm 0.00 in0.0 mm 0.00 in0.0 mm
11:50 AM 49.1°F9.5°C 46.4°F8.0°C 85% 11.2 mph S18.0 kmh S 17.7 mph28.5 kmh 28.53 in966.1 mb 0.00 in0.0 mm 0.00 in0.0 mm 0.00 in0.0 mm
11:55 AM 49.1°F9.5°C 46.4°F8.0°C 85% 12.0 mph S19.3 kmh S 17.7 mph28.5 kmh 28.53 in966.1 mb 0.00 in0.0 mm 0.00 in0.0 mm 0.00 in0.0 mm
12:00 PM 49.3°F9.6°C 46.4°F8.0°C 85% 12.6 mph S20.3 kmh S 17.7 mph28.5 kmh 28.53 in966.1 mb 0.00 in0.0 mm 0.00 in0.0 mm 0.00 in0.0 mm
12:05 PM 49.6°F9.8°C 46.4°F8.0°C 85% 13.4 mph SSW21.6 kmh SSW 17.7 mph28.5 kmh 28.53 in966.1 mb 0.00 in0.0 mm 0.00 in0.0 mm 0.00 in0.0 mm
12:10 PM 49.6°F9.8°C 44.6°F7.0°C 84% 14.8 mph S23.8 kmh S 19.7 mph31.7 kmh 28.50 in965.1 mb 0.00 in0.0 mm 0.00 in0.0 mm 0.00 in0.0 mm
12:15 PM 49.6°F9.8°C 44.6°F7.0°C 84% 15.3 mph S24.6 kmh S 21.9 mph35.2 kmh 28.50 in965.1 mb 0.00 in0.0 mm 0.00 in0.0 mm 0.00 in0.0 mm
12:20 PM 49.6°F9.8°C 44.6°F7.0°C 84% 14.5 mph S23.3 kmh S 21.9 mph35.2 kmh 28.50 in965.1 mb 0.00 in0.0 mm 0.00 in0.0 mm 0.00 in0.0 mm
12:25 PM 49.8°F9.9°C 46.4°F8.0°C 84% 13.7 mph S22.0 kmh S 17.4 mph28.0 kmh 28.50 in965.1 mb 0.00 in0.0 mm 0.00 in0.0 mm 0.00 in0.0 mm
12:30 PM 50.0°F10.0°C 46.4°F8.0°C 84% 14.1 mph S22.7 kmh S 17.7 mph28.5 kmh 28.50 in965.1 mb 0.00 in0.0 mm 0.00 in0.0 mm 0.00 in0.0 mm
12:35 PM 50.4°F10.2°C 46.4°F8.0°C 84% 14.0 mph S22.5 kmh S 17.7 mph28.5 kmh 28.50 in965.1 mb 0.00 in0.0 mm 0.00 in0.0 mm 0.00 in0.0 mm
12:40 PM 50.4°F10.2°C 46.4°F8.0°C 84% 12.9 mph S20.8 kmh S 18.1 mph29.1 kmh 28.50 in965.1 mb 0.00 in0.0 mm 0.00 in0.0 mm 0.00 in0.0 mm
12:45 PM 50.4°F10.2°C 46.4°F8.0°C 84% 12.6 mph S20.3 kmh S 18.1 mph29.1 kmh 28.50 in965.1 mb 0.00 in0.0 mm 0.00 in0.0 mm 0.00 in0.0 mm
12:50 PM 50.5°F10.3°C 46.4°F8.0°C 84% 12.7 mph S20.4 kmh S 16.1 mph25.9 kmh 28.50 in965.1 mb 0.00 in0.0 mm 0.00 in0.0 mm 0.00 in0.0 mm
12:55 PM 50.4°F10.2°C 46.4°F8.0°C 84% 12.5 mph SSW20.1 kmh SSW 16.1 mph25.9 kmh 28.50 in965.1 mb 0.00 in0.0 mm 0.00 in0.0 mm 0.00 in0.0 mm
01:00 PM 50.5°F10.3°C 46.4°F8.0°C 84% 12.7 mph S20.4 kmh S 22.4 mph36.0 kmh 28.50 in965.1 mb 0.00 in0.0 mm 0.00 in0.0 mm 0.00 in0.0 mm
01:05 PM 51.3°F10.7°C 46.4°F8.0°C 83% 12.3 mph S19.8 kmh S 22.4 mph36.0 kmh 28.50 in965.1 mb 0.00 in0.0 mm 0.00 in0.0 mm 0.00 in0.0 mm
01:10 PM 52.9°F11.6°C 48.2°F9.0°C 82% 12.9 mph S20.8 kmh S 19.2 mph30.9 kmh 28.50 in965.1 mb 0.00 in0.0 mm 0.00 in0.0 mm 0.00 in0.0 mm
01:15 PM 52.2°F11.2°C 48.2°F9.0°C 82% 11.8 mph S19.0 kmh S 19.2 mph30.9 kmh 28.50 in965.1 mb 0.00 in0.0 mm 0.00 in0.0 mm 0.00 in0.0 mm
01:20 PM 51.8°F11.0°C 46.4°F8.0°C 82% 12.4 mph S20.0 kmh S 19.9 mph32.0 kmh 28.50 in965.1 mb 0.00 in0.0 mm 0.00 in0.0 mm 0.00 in0.0 mm
01:25 PM 51.8°F11.0°C 46.4°F8.0°C 82% 12.6 mph S20.3 kmh S 19.9 mph32.0 kmh 28.50 in965.1 mb 0.00 in0.0 mm 0.00 in0.0 mm 0.00 in0.0 mm
01:30 PM 51.6°F10.9°C 46.4°F8.0°C 82% 11.0 mph SSW17.7 kmh SSW 15.4 mph24.8 kmh 28.50 in965.1 mb 0.00 in0.0 mm 0.00 in0.0 mm 0.00 in0.0 mm
01:35 PM 51.8°F11.0°C 46.4°F8.0°C 82% 11.4 mph SSW18.3 kmh SSW 15.4 mph24.8 kmh 28.50 in965.1 mb 0.00 in0.0 mm 0.00 in0.0 mm 0.00 in0.0 mm
01:40 PM 51.8°F11.0°C 46.4°F8.0°C 82% 11.6 mph SSW18.7 kmh SSW 14.3 mph23.0 kmh 28.47 in964.1 mb 0.00 in0.0 mm 0.00 in0.0 mm 0.00 in0.0 mm
01:45 PM 51.8°F11.0°C 46.4°F8.0°C 82% 12.3 mph S19.8 kmh S 15.7 mph25.3 kmh 28.47 in964.1 mb 0.00 in0.0 mm 0.00 in0.0 mm 0.00 in0.0 mm
01:50 PM 52.0°F11.1°C 46.4°F8.0°C 82% 12.5 mph S20.1 kmh S 17.9 mph28.8 kmh 28.47 in964.1 mb 0.00 in0.0 mm 0.00 in0.0 mm 0.00 in0.0 mm
01:55 PM 51.8°F11.0°C 46.4°F8.0°C 81% 10.8 mph SSW17.4 kmh SSW 17.9 mph28.8 kmh 28.50 in965.1 mb 0.00 in0.0 mm 0.00 in0.0 mm 0.00 in0.0 mm
02:00 PM 51.8°F11.0°C 46.4°F8.0°C 82% 10.5 mph SSW16.9 kmh SSW 15.2 mph24.5 kmh 28.50 in965.1 mb 0.00 in0.0 mm 0.00 in0.0 mm 0.00 in0.0 mm
02:05 PM 51.8°F11.0°C 46.4°F8.0°C 82% 9.6 mph SSW15.4 kmh SSW 15.2 mph24.5 kmh 28.50 in965.1 mb 0.00 in0.0 mm 0.00 in0.0 mm 0.00 in0.0 mm
02:10 PM 51.8°F11.0°C 46.4°F8.0°C 81% 6.6 mph SW10.6 kmh SW 12.8 mph20.6 kmh 28.50 in965.1 mb 0.00 in0.0 mm 0.00 in0.0 mm 0.00 in0.0 mm
02:15 PM 51.6°F10.9°C 46.4°F8.0°C 81% 7.1 mph SW11.4 kmh SW 10.7 mph17.2 kmh 28.50 in965.1 mb 0.00 in0.0 mm 0.00 in0.0 mm 0.00 in0.0 mm
02:20 PM 51.4°F10.8°C 44.6°F7.0°C 79% 6.8 mph WSW10.9 kmh WSW 10.7 mph17.2 kmh 28.50 in965.1 mb 0.00 in0.0 mm 0.00 in0.0 mm 0.00 in0.0 mm
02:25 PM 51.3°F10.7°C 44.6°F7.0°C 78% 6.8 mph SW10.9 kmh SW 15.2 mph24.5 kmh 28.50 in965.1 mb 0.00 in0.0 mm 0.00 in0.0 mm 0.00 in0.0 mm
02:30 PM 51.1°F10.6°C 44.6°F7.0°C 76% 7.7 mph SW12.4 kmh SW 15.2 mph24.5 kmh 28.50 in965.1 mb 0.00 in0.0 mm 0.00 in0.0 mm 0.00 in0.0 mm
02:35 PM 50.9°F10.5°C 44.6°F7.0°C 75% 10.5 mph SW16.9 kmh SW 17.7 mph28.5 kmh 28.50 in965.1 mb 0.00 in0.0 mm 0.00 in0.0 mm 0.00 in0.0 mm
02:40 PM 50.9°F10.5°C 44.6°F7.0°C 75% 11.5 mph SW18.5 kmh SW 17.7 mph28.5 kmh 28.50 in965.1 mb 0.00 in0.0 mm 0.00 in0.0 mm 0.00 in0.0 mm
02:45 PM 51.3°F10.7°C 42.8°F6.0°C 72% 12.0 mph SW19.3 kmh SW 17.4 mph28.0 kmh 28.50 in965.1 mb 0.00 in0.0 mm 0.00 in0.0 mm 0.00 in0.0 mm
02:50 PM 51.4°F10.8°C 42.8°F6.0°C 70% 10.4 mph SW16.7 kmh SW 17.4 mph28.0 kmh 28.50 in965.1 mb 0.00 in0.0 mm 0.00 in0.0 mm 0.00 in0.0 mm
02:55 PM 51.8°F11.0°C 42.8°F6.0°C 70% 9.1 mph SW14.6 kmh SW 15.2 mph24.5 kmh 28.50 in965.1 mb 0.00 in0.0 mm 0.00 in0.0 mm 0.00 in0.0 mm
03:00 PM 51.6°F10.9°C 42.8°F6.0°C 69% 11.1 mph SW17.9 kmh SW 25.7 mph41.4 kmh 28.50 in965.1 mb 0.00 in0.0 mm 0.00 in0.0 mm 0.00 in0.0 mm
03:05 PM 50.7°F10.4°C 41.0°F5.0°C 67% 10.6 mph SW17.1 kmh SW 25.7 mph41.4 kmh 28.50 in965.1 mb 0.00 in0.0 mm 0.00 in0.0 mm 0.00 in0.0 mm
03:10 PM 51.1°F10.6°C 41.0°F5.0°C 68% 10.6 mph SW17.1 kmh SW 15.4 mph24.8 kmh 28.26 in957.0 mb 0.00 in0.0 mm 0.00 in0.0 mm 0.00 in0.0 mm
03:15 PM 51.1°F10.6°C 41.0°F5.0°C 67% 9.3 mph SW15.0 kmh SW 14.3 mph23.0 kmh 28.26 in957.0 mb 0.00 in0.0 mm 0.00 in0.0 mm 0.00 in0.0 mm
03:20 PM 50.9°F10.5°C 41.0°F5.0°C 68% 9.1 mph SW14.6 kmh SW 14.3 mph23.0 kmh 28.26 in957.0 mb 0.00 in0.0 mm 0.00 in0.0 mm 0.00 in0.0 mm
03:25 PM 50.9°F10.5°C 41.0°F5.0°C 66% 9.4 mph SSW15.1 kmh SSW 14.3 mph23.0 kmh 28.44 in963.1 mb 0.00 in0.0 mm 0.00 in0.0 mm 0.00 in0.0 mm
03:30 PM 50.9°F10.5°C 41.0°F5.0°C 66% 9.0 mph SW14.5 kmh SW 17.4 mph28.0 kmh 28.44 in963.1 mb 0.00 in0.0 mm 0.00 in0.0 mm 0.00 in0.0 mm
03:35 PM 51.1°F10.6°C 41.0°F5.0°C 67% 9.8 mph SW15.8 kmh SW 17.4 mph28.0 kmh 28.44 in963.1 mb 0.00 in0.0 mm 0.00 in0.0 mm 0.00 in0.0 mm
03:40 PM 51.1°F10.6°C 41.0°F5.0°C 66% 7.2 mph SW11.6 kmh SW 15.4 mph24.8 kmh 28.44 in963.1 mb 0.00 in0.0 mm 0.00 in0.0 mm 0.00 in0.0 mm
03:45 PM 51.1°F10.6°C 41.0°F5.0°C 66% 9.0 mph SW14.5 kmh SW 17.2 mph27.7 kmh 28.44 in963.1 mb 0.00 in0.0 mm 0.00 in0.0 mm 0.00 in0.0 mm
03:50 PM 50.7°F10.4°C 39.2°F4.0°C 66% 10.9 mph SSW17.5 kmh SSW 17.2 mph27.7 kmh 28.44 in963.1 mb 0.00 in0.0 mm 0.00 in0.0 mm 0.00 in0.0 mm
03:55 PM 50.4°F10.2°C 39.2°F4.0°C 66% 8.9 mph SSW14.3 kmh SSW 17.2 mph27.7 kmh 28.41 in962.1 mb 0.00 in0.0 mm 0.00 in0.0 mm 0.00 in0.0 mm
04:00 PM 50.2°F10.1°C 39.2°F4.0°C 66% 6.8 mph SW10.9 kmh SW 10.1 mph16.3 kmh 28.41 in962.1 mb 0.00 in0.0 mm 0.00 in0.0 mm 0.00 in0.0 mm
04:05 PM 50.0°F10.0°C 39.2°F4.0°C 66% 6.4 mph SSW10.3 kmh SSW 10.1 mph16.3 kmh 28.41 in962.1 mb 0.00 in0.0 mm 0.00 in0.0 mm 0.00 in0.0 mm
04:10 PM 50.0°F10.0°C 39.2°F4.0°C 66% 7.7 mph SW12.4 kmh SW 14.5 mph23.3 kmh 28.44 in963.1 mb 0.00 in0.0 mm 0.00 in0.0 mm 0.00 in0.0 mm
04:15 PM 49.8°F9.9°C 39.2°F4.0°C 67% 8.6 mph SW13.8 kmh SW 14.5 mph23.3 kmh 28.44 in963.1 mb 0.00 in0.0 mm 0.00 in0.0 mm 0.00 in0.0 mm
04:20 PM 49.8°F9.9°C 41.0°F5.0°C 68% 7.9 mph SW12.7 kmh SW 11.0 mph17.7 kmh 28.44 in963.1 mb 0.00 in0.0 mm 0.00 in0.0 mm 0.00 in0.0 mm
04:25 PM 50.0°F10.0°C 41.0°F5.0°C 68% 9.3 mph SSW15.0 kmh SSW 17.7 mph28.5 kmh 28.44 in963.1 mb 0.00 in0.0 mm 0.00 in0.0 mm 0.00 in0.0 mm
04:30 PM 49.6°F9.8°C 39.2°F4.0°C 68% 9.0 mph SW14.5 kmh SW 17.7 mph28.5 kmh 28.44 in963.1 mb 0.00 in0.0 mm 0.00 in0.0 mm 0.00 in0.0 mm
04:35 PM 49.6°F9.8°C 39.2°F4.0°C 68% 7.2 mph SSW11.6 kmh SSW 17.7 mph28.5 kmh 28.44 in963.1 mb 0.00 in0.0 mm 0.00 in0.0 mm 0.00 in0.0 mm
04:40 PM 49.5°F9.7°C 39.2°F4.0°C 68% 6.2 mph SSW10.0 kmh SSW 10.1 mph16.3 kmh 28.44 in963.1 mb 0.00 in0.0 mm 0.00 in0.0 mm 0.00 in0.0 mm
04:45 PM 49.3°F9.6°C 39.2°F4.0°C 68% 6.5 mph SSW10.5 kmh SSW 9.8 mph15.8 kmh 28.44 in963.1 mb 0.00 in0.0 mm 0.00 in0.0 mm 0.00 in0.0 mm
04:50 PM 49.1°F9.5°C 39.2°F4.0°C 69% 6.9 mph SSW11.1 kmh SSW 13.2 mph21.2 kmh 28.44 in963.1 mb 0.00 in0.0 mm 0.00 in0.0 mm 0.00 in0.0 mm
04:55 PM 48.7°F9.3°C 39.2°F4.0°C 69% 7.1 mph SW11.4 kmh SW 13.2 mph21.2 kmh 28.44 in963.1 mb 0.00 in0.0 mm 0.00 in0.0 mm 0.00 in0.0 mm
05:00 PM 48.7°F9.3°C 39.2°F4.0°C 69% 7.4 mph SW11.9 kmh SW 17.2 mph27.7 kmh 28.44 in963.1 mb 0.00 in0.0 mm 0.00 in0.0 mm 0.00 in0.0 mm
05:05 PM 48.6°F9.2°C 39.2°F4.0°C 69% 7.4 mph SSW11.9 kmh SSW 17.2 mph27.7 kmh 28.44 in963.1 mb 0.00 in0.0 mm 0.00 in0.0 mm 0.00 in0.0 mm
05:10 PM 48.6°F9.2°C 39.2°F4.0°C 69% 7.8 mph SW12.6 kmh SW 12.8 mph20.6 kmh 28.44 in963.1 mb 0.00 in0.0 mm 0.00 in0.0 mm 0.00 in0.0 mm
05:15 PM 48.2°F9.0°C 39.2°F4.0°C 68% 8.0 mph SW12.9 kmh SW 12.1 mph19.5 kmh 28.44 in963.1 mb 0.00 in0.0 mm 0.00 in0.0 mm 0.00 in0.0 mm
05:20 PM 47.8°F8.8°C 37.4°F3.0°C 67% 8.1 mph SW13.0 kmh SW 14.8 mph23.8 kmh 28.44 in963.1 mb 0.00 in0.0 mm 0.00 in0.0 mm 0.00 in0.0 mm
05:25 PM 47.7°F8.7°C 37.4°F3.0°C 67% 7.5 mph SW12.1 kmh SW 17.2 mph27.7 kmh 28.44 in963.1 mb 0.00 in0.0 mm 0.00 in0.0 mm 0.00 in0.0 mm
05:30 PM 47.5°F8.6°C 37.4°F3.0°C 68% 6.5 mph SW10.5 kmh SW 17.2 mph27.7 kmh 28.44 in963.1 mb 0.00 in0.0 mm 0.00 in0.0 mm 0.00 in0.0 mm
05:35 PM 47.3°F8.5°C 37.4°F3.0°C 68% 7.4 mph SW11.9 kmh SW 14.1 mph22.7 kmh 28.44 in963.1 mb 0.00 in0.0 mm 0.00 in0.0 mm 0.00 in0.0 mm
05:40 PM 47.3°F8.5°C 37.4°F3.0°C 68% 8.0 mph SW12.9 kmh SW 13.2 mph21.2 kmh 28.44 in963.1 mb 0.00 in0.0 mm 0.00 in0.0 mm 0.00 in0.0 mm
05:45 PM 47.1°F8.4°C 37.4°F3.0°C 68% 6.7 mph SSW10.8 kmh SSW 10.3 mph16.6 kmh 28.44 in963.1 mb 0.00 in0.0 mm 0.00 in0.0 mm 0.00 in0.0 mm
05:50 PM 46.9°F8.3°C 37.4°F3.0°C 69% 6.8 mph S10.9 kmh S 12.1 mph19.5 kmh 28.44 in963.1 mb 0.00 in0.0 mm 0.00 in0.0 mm 0.00 in0.0 mm
05:55 PM 47.1°F8.4°C 37.4°F3.0°C 69% 8.8 mph SSW14.2 kmh SSW 12.3 mph19.8 kmh 28.41 in962.1 mb 0.00 in0.0 mm 0.00 in0.0 mm 0.00 in0.0 mm
06:00 PM 47.3°F8.5°C 37.4°F3.0°C 69% 8.5 mph SW13.7 kmh SW 12.3 mph19.8 kmh 28.41 in962.1 mb 0.00 in0.0 mm 0.00 in0.0 mm 0.00 in0.0 mm
06:05 PM 47.1°F8.4°C 37.4°F3.0°C 69% 8.5 mph SSW13.7 kmh SSW 15.2 mph24.5 kmh 28.41 in962.1 mb 0.00 in0.0 mm 0.00 in0.0 mm 0.00 in0.0 mm
06:10 PM 47.1°F8.4°C 37.4°F3.0°C 69% 8.5 mph SSW13.7 kmh SSW 15.2 mph24.5 kmh 28.41 in962.1 mb 0.00 in0.0 mm 0.00 in0.0 mm 0.00 in0.0 mm
06:15 PM 47.1°F8.4°C 37.4°F3.0°C 69% 8.6 mph SSW13.8 kmh SSW 15.2 mph24.5 kmh 28.41 in962.1 mb 0.00 in0.0 mm 0.00 in0.0 mm 0.00 in0.0 mm
06:20 PM 46.9°F8.3°C 37.4°F3.0°C 69% 7.3 mph SW11.7 kmh SW 12.5 mph20.1 kmh 28.41 in962.1 mb 0.00 in0.0 mm 0.00 in0.0 mm 0.00 in0.0 mm
06:25 PM 46.9°F8.3°C 37.4°F3.0°C 69% 6.4 mph SW10.3 kmh SW 8.7 mph14.0 kmh 28.41 in962.1 mb 0.00 in0.0 mm 0.00 in0.0 mm 0.00 in0.0 mm
06:30 PM 46.9°F8.3°C 37.4°F3.0°C 69% 7.1 mph SW11.4 kmh SW 11.0 mph17.7 kmh 28.41 in962.1 mb 0.00 in0.0 mm 0.00 in0.0 mm 0.00 in0.0 mm
06:35 PM 46.8°F8.2°C 37.4°F3.0°C 69% 7.0 mph SSW11.3 kmh SSW 11.0 mph17.7 kmh 28.41 in962.1 mb 0.00 in0.0 mm 0.00 in0.0 mm 0.00 in0.0 mm
06:40 PM 46.8°F8.2°C 37.4°F3.0°C 69% 6.1 mph SSW9.8 kmh SSW 8.7 mph14.0 kmh 28.38 in961.1 mb 0.00 in0.0 mm 0.00 in0.0 mm 0.00 in0.0 mm
06:45 PM 46.8°F8.2°C 37.4°F3.0°C 69% 6.6 mph SW10.6 kmh SW 9.6 mph15.4 kmh 28.38 in961.1 mb 0.00 in0.0 mm 0.00 in0.0 mm 0.00 in0.0 mm
06:50 PM 46.4°F8.0°C 37.4°F3.0°C 69% 6.1 mph SW9.8 kmh SW 9.6 mph15.4 kmh 28.38 in961.1 mb 0.00 in0.0 mm 0.00 in0.0 mm 0.00 in0.0 mm
06:55 PM 46.4°F8.0°C 37.4°F3.0°C 69% 5.6 mph SSW9.0 kmh SSW 10.3 mph16.6 kmh 28.38 in961.1 mb 0.00 in0.0 mm 0.00 in0.0 mm 0.00 in0.0 mm
07:00 PM 46.4°F8.0°C 37.4°F3.0°C 69% 7.3 mph SSW11.7 kmh SSW 12.3 mph19.8 kmh 28.38 in961.1 mb 0.00 in0.0 mm 0.00 in0.0 mm 0.00 in0.0 mm
07:05 PM 46.2°F7.9°C 37.4°F3.0°C 69% 6.9 mph SSW11.1 kmh SSW 12.3 mph19.8 kmh 28.38 in961.1 mb 0.00 in0.0 mm 0.00 in0.0 mm 0.00 in0.0 mm
07:10 PM 46.2°F7.9°C 37.4°F3.0°C 69% 7.6 mph SSW12.2 kmh SSW 12.3 mph19.8 kmh 28.41 in962.1 mb 0.00 in0.0 mm 0.00 in0.0 mm 0.00 in0.0 mm
07:15 PM 46.0°F7.8°C 37.4°F3.0°C 70% 8.1 mph SSW13.0 kmh SSW 12.3 mph19.8 kmh 28.41 in962.1 mb 0.00 in0.0 mm 0.00 in0.0 mm 0.00 in0.0 mm
07:20 PM 45.7°F7.6°C 37.4°F3.0°C 70% 8.0 mph SSW12.9 kmh SSW 12.3 mph19.8 kmh 28.41 in962.1 mb 0.00 in0.0 mm 0.00 in0.0 mm 0.00 in0.0 mm
07:25 PM 45.5°F7.5°C 37.4°F3.0°C 70% 7.4 mph SSW11.9 kmh SSW 11.0 mph17.7 kmh 28.41 in962.1 mb 0.00 in0.0 mm 0.00 in0.0 mm 0.00 in0.0 mm
07:30 PM 45.3°F7.4°C 37.4°F3.0°C 71% 6.9 mph SW11.1 kmh SW 10.7 mph17.2 kmh 28.41 in962.1 mb 0.00 in0.0 mm 0.00 in0.0 mm 0.00 in0.0 mm
07:35 PM 45.3°F7.4°C 35.6°F2.0°C 70% 8.3 mph SW13.4 kmh SW 11.0 mph17.7 kmh 28.41 in962.1 mb 0.00 in0.0 mm 0.00 in0.0 mm 0.00 in0.0 mm
07:40 PM 45.1°F7.3°C 35.6°F2.0°C 70% 8.3 mph SSW13.4 kmh SSW 11.0 mph17.7 kmh 28.41 in962.1 mb 0.00 in0.0 mm 0.00 in0.0 mm 0.00 in0.0 mm
07:45 PM 45.1°F7.3°C 35.6°F2.0°C 70% 7.4 mph SSW11.9 kmh SSW 10.7 mph17.2 kmh 28.41 in962.1 mb 0.00 in0.0 mm 0.00 in0.0 mm 0.00 in0.0 mm
07:50 PM 45.1°F7.3°C 35.6°F2.0°C 70% 7.1 mph SSW11.4 kmh SSW 12.8 mph20.6 kmh 28.41 in962.1 mb 0.00 in0.0 mm 0.00 in0.0 mm 0.00 in0.0 mm
07:55 PM 45.0°F7.2°C 37.4°F3.0°C 71% 8.1 mph SSW13.0 kmh SSW 12.8 mph20.6 kmh 28.41 in962.1 mb 0.00 in0.0 mm 0.00 in0.0 mm 0.00 in0.0 mm
08:00 PM 44.8°F7.1°C 35.6°F2.0°C 71% 8.3 mph SSW13.4 kmh SSW 14.8 mph23.8 kmh 28.41 in962.1 mb 0.00 in0.0 mm 0.00 in0.0 mm 0.00 in0.0 mm
08:05 PM 44.6°F7.0°C 35.6°F2.0°C 71% 7.2 mph SSW11.6 kmh SSW 14.8 mph23.8 kmh 28.41 in962.1 mb 0.00 in0.0 mm 0.00 in0.0 mm 0.00 in0.0 mm
08:10 PM 44.6°F7.0°C 35.6°F2.0°C 71% 7.6 mph SSW12.2 kmh SSW 11.0 mph17.7 kmh 28.26 in957.0 mb 0.00 in0.0 mm 0.00 in0.0 mm 0.00 in0.0 mm
08:15 PM 44.4°F6.9°C 37.4°F3.0°C 72% 8.3 mph SSW13.4 kmh SSW 14.3 mph23.0 kmh 28.26 in957.0 mb 0.00 in0.0 mm 0.00 in0.0 mm 0.00 in0.0 mm
08:20 PM 44.4°F6.9°C 37.4°F3.0°C 72% 9.3 mph SSW15.0 kmh SSW 14.3 mph23.0 kmh 28.26 in957.0 mb 0.00 in0.0 mm 0.00 in0.0 mm 0.00 in0.0 mm
08:25 PM 44.2°F6.8°C 35.6°F2.0°C 72% 8.2 mph SSW13.2 kmh SSW 13.2 mph21.2 kmh 28.41 in962.1 mb 0.00 in0.0 mm 0.00 in0.0 mm 0.00 in0.0 mm
08:30 PM 44.4°F6.9°C 37.4°F3.0°C 72% 7.2 mph SSW11.6 kmh SSW 10.3 mph16.6 kmh 28.41 in962.1 mb 0.00 in0.0 mm 0.00 in0.0 mm 0.00 in0.0 mm
08:35 PM 44.2°F6.8°C 35.6°F2.0°C 72% 6.7 mph SW10.8 kmh SW 10.3 mph16.6 kmh 28.41 in962.1 mb 0.00 in0.0 mm 0.00 in0.0 mm 0.00 in0.0 mm
08:40 PM 44.4°F6.9°C 37.4°F3.0°C 72% 6.4 mph SW10.3 kmh SW 9.8 mph15.8 kmh 28.41 in962.1 mb 0.00 in0.0 mm 0.00 in0.0 mm 0.00 in0.0 mm
08:45 PM 44.4°F6.9°C 35.6°F2.0°C 71% 7.9 mph SSW12.7 kmh SSW 10.5 mph16.9 kmh 28.41 in962.1 mb 0.00 in0.0 mm 0.00 in0.0 mm 0.00 in0.0 mm
08:50 PM 44.2°F6.8°C 35.6°F2.0°C 71% 7.3 mph SSW11.7 kmh SSW 10.5 mph16.9 kmh 28.41 in962.1 mb 0.00 in0.0 mm 0.00 in0.0 mm 0.00 in0.0 mm
08:55 PM 44.2°F6.8°C 35.6°F2.0°C 72% 5.5 mph SSW8.9 kmh SSW 7.8 mph12.6 kmh 28.41 in962.1 mb 0.00 in0.0 mm 0.00 in0.0 mm 0.00 in0.0 mm
09:00 PM 44.1°F6.7°C 35.6°F2.0°C 72% 7.7 mph SSW12.4 kmh SSW 13.0 mph20.9 kmh 28.41 in962.1 mb 0.00 in0.0 mm 0.00 in0.0 mm 0.00 in0.0 mm
09:05 PM 43.7°F6.5°C 35.6°F2.0°C 72% 8.0 mph SSW12.9 kmh SSW 13.0 mph20.9 kmh 28.41 in962.1 mb 0.00 in0.0 mm 0.00 in0.0 mm 0.00 in0.0 mm
09:10 PM 43.7°F6.5°C 35.6°F2.0°C 72% 5.5 mph SSW8.9 kmh SSW 13.0 mph20.9 kmh 28.41 in962.1 mb 0.00 in0.0 mm 0.00 in0.0 mm 0.00 in0.0 mm
09:15 PM 43.7°F6.5°C 35.6°F2.0°C 72% 5.5 mph SW8.9 kmh SW 11.0 mph17.7 kmh 28.41 in962.1 mb 0.00 in0.0 mm 0.00 in0.0 mm 0.00 in0.0 mm
09:20 PM 43.7°F6.5°C 35.6°F2.0°C 72% 6.3 mph SW10.1 kmh SW 11.0 mph17.7 kmh 28.41 in962.1 mb 0.00 in0.0 mm 0.00 in0.0 mm 0.00 in0.0 mm
09:25 PM 43.9°F6.6°C 35.6°F2.0°C 72% 6.1 mph SW9.8 kmh SW 10.5 mph16.9 kmh 28.41 in962.1 mb 0.00 in0.0 mm 0.00 in0.0 mm 0.00 in0.0 mm
09:30 PM 43.7°F6.5°C 35.6°F2.0°C 72% 5.4 mph SW8.7 kmh SW 10.5 mph16.9 kmh 28.41 in962.1 mb 0.00 in0.0 mm 0.00 in0.0 mm 0.00 in0.0 mm
09:35 PM 43.7°F6.5°C 35.6°F2.0°C 72% 8.1 mph SSW13.0 kmh SSW 18.6 mph29.9 kmh 28.41 in962.1 mb 0.00 in0.0 mm 0.00 in0.0 mm 0.00 in0.0 mm
09:40 PM 43.3°F6.3°C 35.6°F2.0°C 72% 9.2 mph SSW14.8 kmh SSW 18.6 mph29.9 kmh 28.41 in962.1 mb 0.00 in0.0 mm 0.00 in0.0 mm 0.00 in0.0 mm
09:45 PM 43.2°F6.2°C 35.6°F2.0°C 72% 8.4 mph SSW13.5 kmh SSW 13.6 mph21.9 kmh 28.41 in962.1 mb 0.00 in0.0 mm 0.00 in0.0 mm 0.00 in0.0 mm
09:50 PM 43.2°F6.2°C 35.6°F2.0°C 73% 9.1 mph SSW14.6 kmh SSW 17.2 mph27.7 kmh 28.41 in962.1 mb 0.00 in0.0 mm 0.00 in0.0 mm 0.00 in0.0 mm
09:55 PM 43.0°F6.1°C 35.6°F2.0°C 73% 9.7 mph SSW15.6 kmh SSW 17.2 mph27.7 kmh 28.41 in962.1 mb 0.00 in0.0 mm 0.00 in0.0 mm 0.00 in0.0 mm
10:00 PM 43.0°F6.1°C 35.6°F2.0°C 73% 9.1 mph SSW14.6 kmh SSW 17.0 mph27.4 kmh 28.41 in962.1 mb 0.00 in0.0 mm 0.00 in0.0 mm 0.00 in0.0 mm
10:05 PM 42.8°F6.0°C 35.6°F2.0°C 73% 6.9 mph S11.1 kmh S 13.0 mph20.9 kmh 28.41 in962.1 mb 0.00 in0.0 mm 0.00 in0.0 mm 0.00 in0.0 mm
10:10 PM 42.8°F6.0°C 35.6°F2.0°C 73% 8.0 mph S12.9 kmh S 12.5 mph20.1 kmh 28.38 in961.1 mb 0.00 in0.0 mm 0.00 in0.0 mm 0.00 in0.0 mm
10:15 PM 42.8°F6.0°C 35.6°F2.0°C 73% 7.2 mph SSW11.6 kmh SSW 12.5 mph20.1 kmh 28.38 in961.1 mb 0.00 in0.0 mm 0.00 in0.0 mm 0.00 in0.0 mm
10:20 PM 43.0°F6.1°C 35.6°F2.0°C 73% 7.7 mph SW12.4 kmh SW 13.0 mph20.9 kmh 28.38 in961.1 mb 0.00 in0.0 mm 0.00 in0.0 mm 0.00 in0.0 mm
10:25 PM 43.0°F6.1°C 35.6°F2.0°C 73% 11.0 mph SW17.7 kmh SW 16.8 mph27.0 kmh 28.38 in961.1 mb 0.00 in0.0 mm 0.00 in0.0 mm 0.00 in0.0 mm
10:30 PM 43.0°F6.1°C 35.6°F2.0°C 73% 10.4 mph SSW16.7 kmh SSW 16.8 mph27.0 kmh 28.38 in961.1 mb 0.00 in0.0 mm 0.00 in0.0 mm 0.00 in0.0 mm
10:35 PM 43.0°F6.1°C 35.6°F2.0°C 73% 9.8 mph SSW15.8 kmh SSW 14.5 mph23.3 kmh 28.38 in961.1 mb 0.00 in0.0 mm 0.00 in0.0 mm 0.00 in0.0 mm
10:40 PM 43.0°F6.1°C 35.6°F2.0°C 73% 9.7 mph SSW15.6 kmh SSW 13.0 mph20.9 kmh 28.41 in962.1 mb 0.00 in0.0 mm 0.00 in0.0 mm 0.00 in0.0 mm
10:45 PM 43.0°F6.1°C 35.6°F2.0°C 73% 9.3 mph SSW15.0 kmh SSW 17.4 mph28.0 kmh 28.41 in962.1 mb 0.00 in0.0 mm 0.00 in0.0 mm 0.00 in0.0 mm
10:50 PM 43.0°F6.1°C 35.6°F2.0°C 73% 10.2 mph SW16.4 kmh SW 17.4 mph28.0 kmh 28.41 in962.1 mb 0.00 in0.0 mm 0.00 in0.0 mm 0.00 in0.0 mm
10:55 PM 43.0°F6.1°C 35.6°F2.0°C 74% 9.9 mph SW15.9 kmh SW 13.0 mph20.9 kmh 28.41 in962.1 mb 0.00 in0.0 mm 0.00 in0.0 mm 0.00 in0.0 mm
11:00 PM 43.0°F6.1°C 35.6°F2.0°C 74% 8.3 mph SSW13.4 kmh SSW 12.3 mph19.8 kmh 28.41 in962.1 mb 0.00 in0.0 mm 0.00 in0.0 mm 0.00 in0.0 mm
11:05 PM 43.0°F6.1°C 35.6°F2.0°C 74% 8.3 mph SSW13.4 kmh SSW 13.0 mph20.9 kmh 28.41 in962.1 mb 0.00 in0.0 mm 0.00 in0.0 mm 0.00 in0.0 mm
11:10 PM 43.2°F6.2°C 35.6°F2.0°C 74% 8.4 mph SSW13.5 kmh SSW 18.1 mph29.1 kmh 28.41 in962.1 mb 0.00 in0.0 mm 0.00 in0.0 mm 0.00 in0.0 mm
11:15 PM 43.2°F6.2°C 35.6°F2.0°C 74% 8.3 mph SW13.4 kmh SW 18.1 mph29.1 kmh 28.41 in962.1 mb 0.00 in0.0 mm 0.00 in0.0 mm 0.00 in0.0 mm
11:20 PM 43.2°F6.2°C 35.6°F2.0°C 73% 7.7 mph SW12.4 kmh SW 14.8 mph23.8 kmh 28.41 in962.1 mb 0.00 in0.0 mm 0.00 in0.0 mm 0.00 in0.0 mm
11:25 PM 43.2°F6.2°C 35.6°F2.0°C 73% 6.6 mph SW10.6 kmh SW 14.8 mph23.8 kmh 28.41 in962.1 mb 0.00 in0.0 mm 0.00 in0.0 mm 0.00 in0.0 mm
11:30 PM 43.3°F6.3°C 35.6°F2.0°C 73% 5.6 mph SW9.0 kmh SW 10.7 mph17.2 kmh 28.41 in962.1 mb 0.00 in0.0 mm 0.00 in0.0 mm 0.00 in0.0 mm
11:35 PM 43.3°F6.3°C 35.6°F2.0°C 73% 6.3 mph SSW10.1 kmh SSW 16.8 mph27.0 kmh 28.41 in962.1 mb 0.00 in0.0 mm 0.00 in0.0 mm 0.00 in0.0 mm
11:40 PM 43.3°F6.3°C 35.6°F2.0°C 72% 7.4 mph SW11.9 kmh SW 16.8 mph27.0 kmh 28.41 in962.1 mb 0.00 in0.0 mm 0.00 in0.0 mm 0.00 in0.0 mm
11:45 PM 43.3°F6.3°C 35.6°F2.0°C 72% 7.4 mph SW11.9 kmh SW 10.7 mph17.2 kmh 28.41 in962.1 mb 0.00 in0.0 mm 0.00 in0.0 mm 0.00 in0.0 mm
11:50 PM 43.3°F6.3°C 35.6°F2.0°C 71% 7.4 mph SW11.9 kmh SW 10.7 mph17.2 kmh 28.41 in962.1 mb 0.00 in0.0 mm 0.00 in0.0 mm 0.00 in0.0 mm
11:55 PM 43.2°F6.2°C 35.6°F2.0°C 71% 6.8 mph SW10.9 kmh SW 11.9 mph19.2 kmh 28.38 in961.1 mb 0.00 in0.0 mm 0.00 in0.0 mm 0.00 in0.0 mm